createdAt,value
2023-02-25T00:01:22.116Z,16.70
2023-02-25T00:03:53.202Z,15.93
2023-02-25T00:06:22.473Z,13.37
2023-02-25T00:08:50.744Z,13.40
2023-02-25T00:11:19.575Z,16.17
2023-02-25T00:13:47.121Z,19.20
2023-02-25T00:16:15.499Z,16.93
2023-02-25T00:18:46.691Z,17.13
2023-02-25T00:21:16.804Z,14.07
2023-02-25T00:23:46.329Z,14.60
2023-02-25T00:26:14.014Z,17.13
2023-02-25T00:28:41.966Z,14.17
2023-02-25T00:31:15.870Z,17.10
2023-02-25T00:33:43.392Z,14.10
2023-02-25T00:36:13.567Z,18.10
2023-02-25T00:38:41.420Z,15.43
2023-02-25T00:41:13.873Z,22.83
2023-02-25T00:43:42.431Z,11.87
2023-02-25T00:46:10.938Z,12.63
2023-02-25T00:48:39.251Z,13.43
2023-02-25T00:51:12.692Z,12.97
2023-02-25T00:53:40.471Z,12.47
2023-02-25T00:56:09.435Z,14.00
2023-02-25T00:58:38.087Z,11.50
2023-02-25T01:01:14.850Z,12.93
2023-02-25T01:03:42.208Z,14.47
2023-02-25T01:06:09.888Z,13.17
2023-02-25T01:08:37.242Z,13.03
2023-02-25T01:11:13.905Z,13.57
2023-02-25T01:13:41.337Z,15.77
2023-02-25T01:16:28.613Z,14.60
2023-02-25T01:18:59.165Z,9.20
2023-02-25T01:21:29.096Z,13.13
2023-02-25T01:23:58.967Z,14.77
2023-02-25T01:26:29.151Z,13.73
2023-02-25T01:28:56.510Z,10.90
2023-02-25T01:31:25.178Z,15.70
2023-02-25T01:33:52.503Z,16.60
2023-02-25T01:36:19.750Z,10.17
2023-02-25T01:38:47.045Z,8.70
2023-02-25T01:41:14.427Z,11.47
2023-02-25T01:43:42.486Z,10.10
2023-02-25T01:46:09.728Z,11.70
2023-02-25T01:48:40.317Z,10.93
2023-02-25T01:51:13.094Z,14.93
2023-02-25T01:53:47.227Z,15.77
2023-02-25T01:56:18.384Z,16.10
2023-02-25T01:58:47.679Z,14.53
2023-02-25T02:01:21.070Z,15.73
2023-02-25T02:03:50.367Z,12.03
2023-02-25T02:06:28.159Z,11.00
2023-02-25T02:08:55.802Z,12.03
2023-02-25T02:11:23.094Z,16.40
2023-02-25T02:13:56.184Z,16.30
2023-02-25T02:16:29.208Z,11.30
2023-02-25T02:19:01.992Z,14.60
2023-02-25T02:21:57.291Z,13.73
2023-02-25T02:24:42.575Z,9.67
2023-02-25T02:27:41.753Z,9.43
2023-02-25T02:30:26.912Z,13.53
2023-02-25T02:33:16.444Z,12.40
2023-02-25T02:36:19.361Z,10.73
2023-02-25T02:39:04.398Z,13.13
2023-02-25T02:41:47.321Z,15.00
2023-02-25T02:44:31.318Z,11.93
2023-02-25T02:47:23.774Z,11.57
2023-02-25T02:50:34.770Z,14.23
2023-02-25T02:53:09.949Z,17.67
2023-02-25T02:55:41.416Z,12.20
2023-02-25T02:58:22.270Z,10.10
2023-02-25T03:00:55.845Z,15.77
2023-02-25T03:03:36.379Z,11.10
2023-02-25T03:06:09.188Z,15.80
2023-02-25T03:08:44.882Z,17.83
2023-02-25T03:11:13.736Z,14.03
2023-02-25T03:13:41.583Z,11.90
2023-02-25T03:16:14.742Z,13.67
2023-02-25T03:18:53.142Z,11.53
2023-02-25T03:21:25.905Z,15.37
2023-02-25T03:23:54.567Z,12.80
2023-02-25T03:26:23.609Z,9.37
2023-02-25T03:28:51.326Z,10.20
2023-02-25T03:31:29.411Z,14.70
2023-02-25T03:34:02.713Z,14.07
2023-02-25T03:36:37.618Z,16.73
2023-02-25T03:39:35.374Z,16.57
2023-02-25T03:42:05.789Z,14.50
2023-02-25T03:44:44.283Z,15.03
2023-02-25T03:47:13.146Z,31.07
2023-02-25T03:49:59.298Z,16.20
2023-02-25T03:52:28.065Z,18.50
2023-02-25T03:54:57.425Z,14.17
2023-02-25T03:57:35.162Z,17.30
2023-02-25T04:00:13.504Z,14.60
2023-02-25T04:02:40.893Z,9.30
2023-02-25T04:05:10.210Z,7.30
2023-02-25T04:07:37.587Z,4.63
2023-02-25T04:10:08.317Z,5.27
2023-02-25T04:12:35.627Z,4.30
2023-02-25T04:15:03.916Z,3.63
2023-02-25T04:17:31.108Z,5.07
2023-02-25T04:19:58.695Z,1.87
2023-02-25T04:22:26.099Z,1.50
2023-02-25T04:24:53.387Z,0.80
2023-02-25T04:27:20.861Z,1.30
2023-02-25T04:29:48.224Z,1.33
2023-02-25T04:32:15.836Z,0.70
2023-02-25T04:34:43.177Z,1.10
2023-02-25T04:37:10.470Z,0.63
2023-02-25T04:39:37.856Z,1.10
2023-02-25T04:42:05.284Z,1.40
2023-02-25T04:44:32.572Z,0.73
2023-02-25T04:46:59.777Z,2.17
2023-02-25T04:49:27.223Z,1.00
2023-02-25T04:51:55.103Z,1.07
2023-02-25T04:54:22.891Z,0.70
2023-02-25T04:56:50.240Z,0.60
2023-02-25T04:59:17.658Z,0.70
2023-02-25T05:01:44.921Z,0.63
2023-02-25T05:04:12.357Z,0.90
2023-02-25T05:06:39.546Z,0.50
2023-02-25T05:09:08.248Z,0.60
2023-02-25T05:11:37.241Z,0.60
2023-02-25T05:14:04.454Z,0.50
2023-02-25T05:16:31.830Z,0.60
2023-02-25T05:18:59.167Z,0.50
2023-02-25T05:21:27.087Z,0.50
2023-02-25T05:23:54.561Z,0.43
2023-02-25T05:26:24.506Z,0.40
2023-02-25T05:28:54.340Z,0.40
2023-02-25T05:31:23.182Z,1.27
2023-02-25T05:33:51.067Z,1.27
2023-02-25T05:36:19.063Z,2.20
2023-02-25T05:38:46.631Z,0.50
2023-02-25T05:41:15.438Z,1.07
2023-02-25T05:43:42.827Z,0.60
2023-02-25T05:46:13.241Z,0.43
2023-02-25T05:48:42.156Z,0.40
2023-02-25T05:51:28.029Z,0.50
2023-02-25T05:53:57.416Z,0.50
2023-02-25T05:56:30.822Z,0.53
2023-02-25T05:58:59.432Z,0.80
2023-02-25T06:01:28.855Z,0.50
2023-02-25T06:03:59.112Z,0.50
2023-02-25T06:06:28.910Z,1.17
2023-02-25T06:08:56.206Z,0.60
2023-02-25T06:11:26.790Z,0.60
2023-02-25T06:13:56.108Z,0.50
2023-02-25T06:16:25.967Z,0.40
2023-02-25T06:18:53.584Z,1.17
2023-02-25T06:21:20.883Z,0.80
2023-02-25T06:23:50.430Z,0.60
2023-02-25T06:26:18.394Z,2.90
2023-02-25T06:28:45.875Z,0.70
2023-02-25T06:31:15.353Z,1.43
2023-02-25T06:33:42.879Z,2.07
2023-02-25T06:36:10.576Z,0.70
2023-02-25T06:38:38.200Z,1.57
2023-02-25T06:41:10.667Z,0.40
2023-02-25T06:43:38.545Z,0.60
2023-02-25T06:46:07.638Z,0.50
2023-02-25T06:48:34.995Z,0.70
2023-02-25T06:51:03.115Z,0.93
2023-02-25T06:53:30.452Z,0.57
2023-02-25T06:55:59.314Z,1.27
2023-02-25T06:58:26.533Z,0.70
2023-02-25T07:00:54.158Z,2.40
2023-02-25T07:03:21.532Z,0.93
2023-02-25T07:05:48.807Z,2.00
2023-02-25T07:08:16.039Z,1.30
2023-02-25T07:10:43.323Z,1.13
2023-02-25T07:13:11.310Z,1.67
2023-02-25T07:15:38.563Z,3.10
2023-02-25T07:18:06.384Z,0.90
2023-02-25T07:20:33.715Z,1.20
2023-02-25T07:23:04.089Z,1.20
2023-02-25T07:25:31.606Z,1.33
2023-02-25T07:27:58.904Z,1.83
2023-02-25T07:30:26.347Z,0.60
2023-02-25T07:32:53.575Z,0.90
2023-02-25T07:35:20.857Z,0.53
2023-02-25T07:37:48.033Z,0.60
2023-02-25T07:40:16.835Z,2.70
2023-02-25T07:42:44.497Z,0.80
2023-02-25T07:45:12.074Z,1.17
2023-02-25T07:47:40.158Z,0.73
2023-02-25T07:50:11.602Z,0.60
2023-02-25T07:52:40.240Z,0.60
2023-02-25T07:55:07.984Z,2.30
2023-02-25T07:57:35.868Z,0.70
2023-02-25T08:00:05.039Z,0.73
2023-02-25T08:02:32.390Z,0.87
2023-02-25T08:05:00.520Z,2.20
2023-02-25T08:07:29.934Z,0.57
2023-02-25T08:09:57.174Z,0.60
2023-02-25T08:12:24.422Z,2.30
2023-02-25T08:14:51.603Z,2.00
2023-02-25T08:17:18.963Z,0.70
2023-02-25T08:19:46.534Z,0.80
2023-02-25T08:22:13.809Z,0.60
2023-02-25T08:24:41.576Z,0.53
2023-02-25T08:27:08.813Z,1.77
2023-02-25T08:29:37.337Z,0.40
2023-02-25T08:32:07.124Z,0.50
2023-02-25T08:34:35.195Z,0.50
2023-02-25T08:37:02.481Z,0.50
2023-02-25T08:39:31.094Z,0.40
2023-02-25T08:41:58.422Z,0.60
2023-02-25T08:44:25.588Z,0.40
2023-02-25T08:46:52.834Z,0.40
2023-02-25T08:49:20.232Z,1.20
2023-02-25T08:51:59.475Z,0.50
2023-02-25T08:54:26.691Z,2.10
2023-02-25T08:56:55.581Z,1.90
2023-02-25T08:59:23.067Z,1.80
2023-02-25T09:01:52.213Z,0.40
2023-02-25T09:04:22.884Z,2.10
2023-02-25T09:06:51.958Z,0.40
2023-02-25T09:09:21.529Z,0.50
2023-02-25T09:11:49.421Z,0.50
2023-02-25T09:14:17.525Z,0.47
2023-02-25T09:16:45.237Z,0.40
2023-02-25T09:19:15.753Z,0.40
2023-02-25T09:21:43.523Z,0.40
2023-02-25T09:24:11.258Z,0.40
2023-02-25T09:26:38.708Z,0.40
2023-02-25T09:29:06.921Z,0.40
2023-02-25T09:31:36.988Z,0.30
2023-02-25T09:34:07.616Z,0.40
2023-02-25T09:36:35.057Z,0.40
2023-02-25T09:39:03.049Z,0.40
2023-02-25T09:41:35.284Z,0.40
2023-02-25T09:44:05.882Z,0.40
2023-02-25T09:46:37.328Z,0.40
2023-02-25T09:49:33.759Z,0.40
2023-02-25T09:52:22.567Z,0.50
2023-02-25T09:54:55.818Z,0.40
2023-02-25T09:57:23.717Z,0.50
2023-02-25T09:59:56.063Z,2.10
2023-02-25T10:02:39.201Z,0.40
2023-02-25T10:05:23.816Z,0.40
2023-02-25T10:07:58.108Z,0.40
2023-02-25T10:10:58.883Z,1.63
2023-02-25T10:13:46.934Z,0.40
2023-02-25T10:16:34.407Z,0.40
2023-02-25T10:19:10.676Z,0.40
2023-02-25T10:22:14.907Z,0.30
2023-02-25T10:25:22.436Z,0.40
2023-02-25T10:28:16.055Z,0.40
2023-02-25T10:31:08.099Z,0.40
2023-02-25T10:33:38.183Z,0.63
2023-02-25T10:36:10.415Z,0.40
2023-02-25T10:38:42.270Z,0.40
2023-02-25T10:41:09.547Z,2.97
2023-02-25T10:43:36.903Z,0.40
2023-02-25T10:46:33.126Z,0.40
2023-02-25T10:49:16.319Z,0.40
2023-02-25T10:52:03.562Z,0.60
2023-02-25T10:54:33.527Z,0.97
2023-02-25T10:57:28.397Z,0.70
2023-02-25T11:00:04.593Z,0.53
2023-02-25T11:02:51.716Z,0.40
2023-02-25T11:05:43.700Z,0.80
2023-02-25T11:08:33.685Z,1.27
2023-02-25T11:11:23.843Z,1.63
2023-02-25T11:14:18.855Z,0.40
2023-02-25T11:16:46.557Z,0.50
2023-02-25T11:19:30.584Z,0.60
2023-02-25T11:22:00.543Z,2.20
2023-02-25T11:24:37.015Z,0.60
2023-02-25T11:27:06.869Z,0.40
2023-02-25T11:29:38.422Z,0.40
2023-02-25T11:32:10.167Z,0.40
2023-02-25T11:34:49.264Z,0.40
2023-02-25T11:37:40.785Z,0.40
2023-02-25T11:40:32.928Z,0.97
2023-02-25T11:43:17.173Z,0.40
2023-02-25T11:46:08.445Z,0.40
2023-02-25T11:49:25.289Z,0.50
2023-02-25T11:52:26.569Z,0.53
2023-02-25T11:55:09.052Z,1.90
2023-02-25T11:58:03.574Z,0.40
2023-02-25T12:00:57.518Z,0.40
2023-02-25T12:03:41.149Z,1.23
2023-02-25T12:06:08.723Z,0.40
2023-02-25T12:08:55.744Z,0.90
2023-02-25T12:11:44.143Z,0.40
2023-02-25T12:14:33.157Z,1.60
2023-02-25T12:17:04.570Z,0.50
2023-02-25T12:19:54.094Z,0.40
2023-02-25T12:22:47.694Z,0.40
2023-02-25T12:25:17.835Z,0.40
2023-02-25T12:28:22.948Z,0.40
2023-02-25T12:31:17.708Z,0.50
2023-02-25T12:34:27.402Z,0.40
2023-02-25T12:37:20.659Z,0.90
2023-02-25T12:40:24.157Z,0.40
2023-02-25T12:43:06.188Z,3.83
2023-02-25T12:45:58.129Z,0.47
2023-02-25T12:49:14.040Z,0.40
2023-02-25T12:51:55.276Z,0.50
2023-02-25T12:54:59.422Z,0.40
2023-02-25T12:57:35.826Z,0.40
2023-02-25T13:00:21.851Z,0.40
2023-02-25T13:03:24.194Z,0.50
2023-02-25T13:06:13.224Z,2.40
2023-02-25T13:09:05.369Z,0.40
2023-02-25T13:12:10.673Z,0.73
2023-02-25T13:14:49.881Z,0.40
2023-02-25T13:17:35.533Z,1.60
2023-02-25T13:20:21.028Z,0.40
2023-02-25T13:23:06.263Z,0.80
2023-02-25T13:25:46.188Z,0.90
2023-02-25T13:28:41.134Z,0.40
2023-02-25T13:31:19.210Z,0.40
2023-02-25T13:33:46.492Z,0.43
2023-02-25T13:36:32.149Z,0.50
2023-02-25T13:39:32.443Z,0.40
2023-02-25T13:42:16.578Z,0.40
2023-02-25T13:45:18.628Z,0.43
2023-02-25T13:48:06.663Z,0.50
2023-02-25T13:51:02.111Z,0.47
2023-02-25T13:53:47.849Z,1.13
2023-02-25T13:56:43.714Z,0.60
2023-02-25T13:59:43.778Z,0.40
2023-02-25T14:02:41.821Z,0.40
2023-02-25T14:05:42.970Z,0.67
2023-02-25T14:08:41.016Z,0.40
2023-02-25T14:11:34.038Z,0.50
2023-02-25T14:14:30.686Z,0.43
2023-02-25T14:17:10.247Z,0.40
2023-02-25T14:20:04.043Z,0.50
2023-02-25T14:22:35.911Z,0.40
2023-02-25T14:25:18.569Z,0.40
2023-02-25T14:28:05.891Z,1.67
2023-02-25T14:31:00.962Z,0.50
2023-02-25T14:33:46.787Z,0.40
2023-02-25T14:36:46.376Z,1.00
2023-02-25T14:39:19.665Z,0.50
2023-02-25T14:41:56.499Z,0.50
2023-02-25T14:44:37.481Z,0.50
2023-02-25T14:47:20.787Z,0.40
2023-02-25T14:49:59.314Z,0.40
2023-02-25T14:52:49.376Z,0.40
2023-02-25T14:55:48.379Z,0.30
2023-02-25T14:58:44.391Z,0.50
2023-02-25T15:01:30.084Z,0.60
2023-02-25T15:04:40.597Z,0.47
2023-02-25T15:07:48.787Z,0.50
2023-02-25T15:10:37.356Z,0.40
2023-02-25T15:13:10.626Z,0.40
2023-02-25T15:15:46.137Z,0.40
2023-02-25T15:18:44.912Z,8.40
2023-02-25T15:21:30.411Z,0.50
2023-02-25T15:23:58.217Z,0.50
2023-02-25T15:26:40.686Z,0.50
2023-02-25T15:29:32.380Z,0.40
2023-02-25T15:32:10.974Z,0.50
2023-02-25T15:34:52.106Z,2.43
2023-02-25T15:37:51.073Z,0.90
2023-02-25T15:40:19.013Z,0.40
2023-02-25T15:42:46.461Z,0.40
2023-02-25T15:45:33.574Z,0.40
2023-02-25T15:48:15.239Z,0.87
2023-02-25T15:50:42.470Z,1.73
2023-02-25T15:53:26.546Z,0.40
2023-02-25T15:56:13.723Z,0.60
2023-02-25T15:58:52.844Z,5.23
2023-02-25T16:01:46.410Z,0.47
2023-02-25T16:04:44.246Z,0.70
2023-02-25T16:07:17.380Z,0.40
2023-02-25T16:09:52.738Z,0.40
2023-02-25T16:12:20.536Z,0.40
2023-02-25T16:14:58.732Z,0.40
2023-02-25T16:17:44.832Z,0.40
2023-02-25T16:20:46.391Z,0.40
2023-02-25T16:23:15.911Z,0.40
2023-02-25T16:26:08.496Z,0.40
2023-02-25T16:28:54.789Z,0.50
2023-02-25T16:31:29.787Z,0.50
2023-02-25T16:34:09.041Z,0.50
2023-02-25T16:36:56.454Z,3.27
2023-02-25T16:39:27.879Z,0.50
2023-02-25T16:41:55.619Z,0.70
2023-02-25T16:44:30.359Z,1.07
2023-02-25T16:46:57.692Z,0.40
2023-02-25T16:49:38.871Z,0.40
2023-02-25T16:52:07.484Z,0.50
2023-02-25T16:54:38.430Z,0.43
2023-02-25T16:57:18.066Z,0.67
2023-02-25T16:59:46.886Z,0.50
2023-02-25T17:02:17.206Z,0.60
2023-02-25T17:04:48.499Z,1.00
2023-02-25T17:07:22.418Z,0.90
2023-02-25T17:09:54.809Z,1.13
2023-02-25T17:12:45.644Z,1.10
2023-02-25T17:15:21.492Z,0.83
2023-02-25T17:17:54.091Z,0.70
2023-02-25T17:20:28.805Z,0.73
2023-02-25T17:22:59.843Z,6.63
2023-02-25T17:25:34.182Z,0.80
2023-02-25T17:28:01.547Z,0.70
2023-02-25T17:30:42.615Z,0.90
2023-02-25T17:33:26.657Z,0.60
2023-02-25T17:36:19.055Z,0.50
2023-02-25T17:38:46.909Z,0.53
2023-02-25T17:41:18.840Z,0.47
2023-02-25T17:43:46.407Z,0.70
2023-02-25T17:46:29.556Z,0.70
2023-02-25T17:49:02.939Z,0.73
2023-02-25T17:51:36.417Z,0.57
2023-02-25T17:54:08.484Z,0.70
2023-02-25T17:56:36.683Z,0.40
2023-02-25T17:59:08.484Z,0.43
2023-02-25T18:01:48.342Z,0.40
2023-02-25T18:04:33.235Z,0.50
2023-02-25T18:07:22.042Z,0.70
2023-02-25T18:09:51.066Z,1.13
2023-02-25T18:12:38.124Z,1.10
2023-02-25T18:15:16.858Z,1.53
2023-02-25T18:17:49.862Z,2.27
2023-02-25T18:20:29.246Z,1.00
2023-02-25T18:23:00.294Z,1.43
2023-02-25T18:25:34.685Z,3.37
2023-02-25T18:28:03.131Z,2.63
2023-02-25T18:30:32.264Z,1.67
2023-02-25T18:33:00.209Z,1.60
2023-02-25T18:35:29.770Z,1.53
2023-02-25T18:37:58.434Z,1.63
2023-02-25T18:40:30.242Z,1.70
2023-02-25T18:42:59.229Z,1.50
2023-02-25T18:45:28.926Z,1.40
2023-02-25T18:48:00.535Z,1.30
2023-02-25T18:50:32.205Z,1.30
2023-02-25T18:53:00.709Z,1.43
2023-02-25T18:55:30.954Z,1.73
2023-02-25T18:57:58.928Z,1.27
2023-02-25T19:00:28.160Z,1.27
2023-02-25T19:02:59.145Z,1.63
2023-02-25T19:05:30.550Z,1.60
2023-02-25T19:07:58.228Z,1.87
2023-02-25T19:10:28.716Z,2.00
2023-02-25T19:13:03.645Z,1.70
2023-02-25T19:15:30.954Z,2.20
2023-02-25T19:17:58.143Z,1.60
2023-02-25T19:20:25.584Z,1.40
2023-02-25T19:22:53.514Z,2.53
2023-02-25T19:25:24.760Z,1.87
2023-02-25T19:27:54.454Z,1.97
2023-02-25T19:30:25.391Z,1.77
2023-02-25T19:32:52.723Z,1.97
2023-02-25T19:35:20.013Z,1.37
2023-02-25T19:37:47.533Z,1.10
2023-02-25T19:40:16.095Z,1.10
2023-02-25T19:42:44.848Z,1.00
2023-02-25T19:45:15.163Z,0.90
2023-02-25T19:47:42.647Z,3.20
2023-02-25T19:50:11.730Z,0.90
2023-02-25T19:52:39.199Z,1.00
2023-02-25T19:55:07.654Z,1.30
2023-02-25T19:57:39.979Z,1.50
2023-02-25T20:00:13.736Z,1.40
2023-02-25T20:02:41.994Z,1.43
2023-02-25T20:05:10.519Z,1.20
2023-02-25T20:07:38.596Z,1.10
2023-02-25T20:10:11.868Z,1.40
2023-02-25T20:12:41.400Z,1.60
2023-02-25T20:15:10.280Z,1.57
2023-02-25T20:17:39.465Z,1.60
2023-02-25T20:20:08.886Z,1.27
2023-02-25T20:22:37.049Z,0.90
2023-02-25T20:25:05.017Z,0.80
2023-02-25T20:27:33.184Z,0.83
2023-02-25T20:30:00.714Z,0.73
2023-02-25T20:32:30.055Z,0.60
2023-02-25T20:34:57.926Z,0.60
2023-02-25T20:37:34.951Z,1.03
2023-02-25T20:40:02.418Z,0.50
2023-02-25T20:42:31.397Z,0.70
2023-02-25T20:44:59.842Z,0.60
2023-02-25T20:47:30.380Z,0.60
2023-02-25T20:49:58.334Z,3.47
2023-02-25T20:52:26.955Z,2.00
2023-02-25T20:54:54.624Z,2.30
2023-02-25T20:57:39.972Z,2.00
2023-02-25T21:00:26.001Z,1.17
2023-02-25T21:02:53.289Z,0.60
2023-02-25T21:05:20.536Z,0.80
2023-02-25T21:07:47.788Z,0.60
2023-02-25T21:10:15.186Z,2.10
2023-02-25T21:12:42.507Z,0.50
2023-02-25T21:15:10.676Z,0.63
2023-02-25T21:17:37.941Z,0.40
2023-02-25T21:20:06.964Z,0.60
2023-02-25T21:22:34.384Z,2.07
2023-02-25T21:25:02.216Z,0.63
2023-02-25T21:27:29.792Z,0.93
2023-02-25T21:29:57.371Z,0.50
2023-02-25T21:32:24.728Z,0.83
2023-02-25T21:34:51.946Z,0.60
2023-02-25T21:37:19.204Z,0.53
2023-02-25T21:39:46.676Z,0.50
2023-02-25T21:42:14.153Z,0.80
2023-02-25T21:44:41.430Z,0.50
2023-02-25T21:47:08.703Z,0.50
2023-02-25T21:49:36.088Z,0.70
2023-02-25T21:52:03.503Z,0.60
2023-02-25T21:54:30.722Z,0.50
2023-02-25T21:56:58.004Z,0.60
2023-02-25T21:59:26.135Z,1.07
2023-02-25T22:01:53.945Z,1.67
2023-02-25T22:04:21.188Z,1.33
2023-02-25T22:06:49.259Z,1.43
2023-02-25T22:09:18.027Z,0.70
2023-02-25T22:11:45.634Z,0.70
2023-02-25T22:14:12.878Z,0.50
2023-02-25T22:16:40.531Z,0.60
2023-02-25T22:19:07.872Z,0.70
2023-02-25T22:21:36.132Z,1.20
2023-02-25T22:24:04.903Z,2.67
2023-02-25T22:26:35.240Z,1.03
2023-02-25T22:29:05.699Z,1.53
2023-02-25T22:31:34.261Z,3.73
2023-02-25T22:34:02.880Z,1.20
2023-02-25T22:36:30.240Z,0.77
2023-02-25T22:38:57.730Z,1.40
2023-02-25T22:41:28.278Z,0.70
2023-02-25T22:43:57.321Z,0.70
2023-02-25T22:46:36.847Z,1.70
2023-02-25T22:49:05.847Z,0.60
2023-02-25T22:51:36.065Z,0.50
2023-02-25T22:54:04.837Z,0.60
2023-02-25T22:56:32.463Z,0.50
2023-02-25T22:59:00.152Z,2.93
2023-02-25T23:01:27.896Z,0.50
2023-02-25T23:03:56.320Z,0.80
2023-02-25T23:06:34.407Z,0.60
2023-02-25T23:09:08.893Z,0.47
2023-02-25T23:11:36.422Z,0.50
2023-02-25T23:14:04.575Z,0.60
2023-02-25T23:16:40.437Z,0.50
2023-02-25T23:19:10.972Z,0.60
2023-02-25T23:21:39.511Z,0.60
2023-02-25T23:24:08.497Z,0.50
2023-02-25T23:26:40.908Z,1.03
2023-02-25T23:29:09.988Z,1.27
2023-02-25T23:31:48.352Z,0.60
2023-02-25T23:34:20.953Z,0.50
2023-02-25T23:36:48.444Z,2.63
2023-02-25T23:39:16.432Z,2.40
2023-02-25T23:41:44.283Z,0.90
2023-02-25T23:44:12.384Z,1.33
2023-02-25T23:46:42.820Z,1.00
2023-02-25T23:49:13.268Z,0.63
2023-02-25T23:51:43.693Z,0.97
2023-02-25T23:54:14.963Z,0.50
2023-02-25T23:56:42.194Z,1.73
2023-02-25T23:59:10.527Z,0.50
